Time;durP1;ratioP1;P1;durP2;ratioP2;P2;SDS_P1;SDS_P2;PMS_P1;PMS_P2;Temp;Humidity;BMP_temperature;BMP_pressure;BME280_temperature;BME280_humidity;BME280_pressure;Samples;Min_cycle;Max_cycle;Signal;HPM_P1;HPM_P2
2022/11/16 00:00:15;;;;;;;;;;;16.50;91.50;;;;;;5094088;28;19917;-39
2022/11/16 00:02:41;;;;;;;;;;;16.40;91.50;;;;;;5094174;28;20371;-39
2022/11/16 00:05:07;;;;;;;;;;;16.30;91.60;;;;;;5094125;28;19908;-39
2022/11/16 00:07:32;;;;;;;;;;;16.30;91.70;;;;;;5093955;28;19920;-39
2022/11/16 00:09:57;;;;;;;;;;;16.30;91.70;;;;;;5094246;28;19915;-40
2022/11/16 00:12:23;;;;;;;;;;;16.20;91.80;;;;;;5094144;28;19915;-39
2022/11/16 00:14:49;;;;;;;;;;;16.20;91.90;;;;;;5094118;28;20256;-39
2022/11/16 00:17:15;;;;;;;;;;;16.20;91.90;;;;;;5093955;28;20325;-39
2022/11/16 00:19:40;;;;;;;;;;;16.20;91.90;;;;;;5094257;28;19959;-39
2022/11/16 00:22:06;;;;;;;;;;;16.20;91.90;;;;;;5094248;28;20382;-39
2022/11/16 00:24:31;;;;;;;;;;;16.10;91.90;;;;;;5094186;28;20016;-39
2022/11/16 00:26:57;;;;;;;;;;;16.20;92.00;;;;;;5094200;28;19908;-39
2022/11/16 00:29:23;;;;;;;;;;;16.20;92.00;;;;;;5093898;28;19919;-39
2022/11/16 00:31:49;;;;;;;;;;;16.10;92.00;;;;;;5093844;28;19931;-39
2022/11/16 00:34:14;;;;;;;;;;;16.10;92.00;;;;;;5093786;28;20260;-39
2022/11/16 00:36:40;;;;;;;;;;;16.10;92.00;;;;;;5094444;28;19908;-39
2022/11/16 00:39:05;;;;;;;;;;;16.10;92.00;;;;;;5093722;28;19912;-39
2022/11/16 00:41:31;;;;;;;;;;;16.10;92.00;;;;;;5093736;28;19920;-39
2022/11/16 00:43:56;;;;;;;;;;;16.10;92.00;;;;;;5093771;28;20006;-40
2022/11/16 00:46:22;;;;;;;;;;;16.10;92.00;;;;;;5093931;28;20359;-39
2022/11/16 00:48:47;;;;;;;;;;;16.10;92.00;;;;;;5093859;28;19915;-39
2022/11/16 00:51:13;;;;;;;;;;;16.10;92.00;;;;;;5093670;28;19915;-39
2022/11/16 00:53:38;;;;;;;;;;;16.10;92.00;;;;;;5093935;28;19908;-39
2022/11/16 00:56:04;;;;;;;;;;;16.10;92.00;;;;;;5093892;28;19915;-39
2022/11/16 00:58:30;;;;;;;;;;;16.10;92.00;;;;;;5093790;28;20359;-40
2022/11/16 01:00:55;;;;;;;;;;;16.10;92.00;;;;;;5093771;28;19919;-39
2022/11/16 01:03:21;;;;;;;;;;;16.10;92.10;;;;;;5093793;28;19909;-39
2022/11/16 01:05:46;;;;;;;;;;;16.10;92.10;;;;;;5093763;28;19915;-38
2022/11/16 01:08:11;;;;;;;;;;;16.10;92.10;;;;;;5093949;28;19946;-38
2022/11/16 01:10:38;;;;;;;;;;;16.10;92.00;;;;;;5096270;28;19908;-39
2022/11/16 01:13:05;;;;;;;;;;;16.10;92.00;;;;;;5096443;28;21455;-38
2022/11/16 01:15:31;;;;;;;;;;;16.10;92.00;;;;;;5097258;28;19990;-39
2022/11/16 01:17:56;;;;;;;;;;;16.10;92.00;;;;;;5097364;28;20347;-38
2022/11/16 01:20:24;;;;;;;;;;;16.10;92.00;;;;;;5097103;28;19938;-38
2022/11/16 01:22:49;;;;;;;;;;;16.10;92.00;;;;;;5096810;28;19994;-39
2022/11/16 01:25:15;;;;;;;;;;;16.10;92.00;;;;;;5097246;28;19942;-39
2022/11/16 01:27:41;;;;;;;;;;;16.10;92.00;;;;;;5096999;28;19930;-38
2022/11/16 01:30:08;;;;;;;;;;;16.10;92.00;;;;;;5097052;28;19915;-38
2022/11/16 01:32:33;;;;;;;;;;;16.10;92.00;;;;;;5097419;28;19961;-39
2022/11/16 01:34:59;;;;;;;;;;;16.10;92.00;;;;;;5096993;28;19908;-38
2022/11/16 01:37:25;;;;;;;;;;;16.10;92.10;;;;;;5097051;28;19916;-38
2022/11/16 01:39:50;;;;;;;;;;;16.10;92.10;;;;;;5096597;28;19919;-39
2022/11/16 01:42:17;;;;;;;;;;;16.10;92.10;;;;;;5097300;28;19912;-38
2022/11/16 01:44:43;;;;;;;;;;;16.10;92.10;;;;;;5096901;28;20002;-38
2022/11/16 01:47:10;;;;;;;;;;;16.10;92.10;;;;;;5097239;28;20368;-38
2022/11/16 01:49:36;;;;;;;;;;;16.10;92.10;;;;;;5096783;28;19908;-38
2022/11/16 01:52:14;;;;;;;;;;;16.10;92.10;;;;;;5096732;28;19919;-38
2022/11/16 01:54:41;;;;;;;;;;;16.10;92.30;;;;;;5096495;28;19915;-38
2022/11/16 01:57:08;;;;;;;;;;;16.00;92.10;;;;;;5096564;28;19940;-38
2022/11/16 01:59:34;;;;;;;;;;;16.00;92.10;;;;;;5096181;28;20446;-38
2022/11/16 02:01:59;;;;;;;;;;;16.00;92.10;;;;;;5096644;28;19969;-38
2022/11/16 02:04:25;;;;;;;;;;;16.00;92.20;;;;;;5096206;28;20247;-38
2022/11/16 02:06:53;;;;;;;;;;;16.00;92.10;;;;;;5095096;28;19909;-39
2022/11/16 02:09:52;;;;;;;;;;;16.00;92.20;;;;;;5084825;28;20267;-38
2022/11/16 02:12:33;;;;;;;;;;;16.10;92.20;;;;;;5095970;28;20014;-38
2022/11/16 02:15:06;;;;;;;;;;;16.00;92.20;;;;;;5096172;28;19908;-38
2022/11/16 02:17:50;;;;;;;;;;;16.00;92.20;;;;;;5078316;28;20018;-39
2022/11/16 02:20:19;;;;;;;;;;;16.00;92.20;;;;;;5095309;28;19980;-38
2022/11/16 02:22:50;;;;;;;;;;;16.00;92.20;;;;;;5096481;28;20007;-38
2022/11/16 02:25:41;;;;;;;;;;;16.00;92.20;;;;;;5096018;28;19908;-38
2022/11/16 02:28:25;;;;;;;;;;;16.00;92.30;;;;;;5095810;28;19908;-38
2022/11/16 02:30:52;;;;;;;;;;;16.00;92.30;;;;;;5096127;28;19908;-38
2022/11/16 02:33:20;;;;;;;;;;;15.90;92.30;;;;;;5095843;28;19908;-38
2022/11/16 02:35:47;;;;;;;;;;;15.90;92.30;;;;;;5095590;28;20333;-38
2022/11/16 02:38:19;;;;;;;;;;;15.90;92.30;;;;;;5077574;28;19918;-38
2022/11/16 02:40:51;;;;;;;;;;;15.90;92.30;;;;;;5095618;28;20003;-39
2022/11/16 02:43:20;;;;;;;;;;;15.90;92.30;;;;;;5095698;28;19990;-39
2022/11/16 02:45:47;;;;;;;;;;;15.90;92.30;;;;;;5095395;28;19908;-39
2022/11/16 02:48:19;;;;;;;;;;;15.90;92.30;;;;;;5095201;28;20372;-39
2022/11/16 02:50:45;;;;;;;;;;;15.90;92.40;;;;;;5095352;28;19912;-38
2022/11/16 02:53:11;;;;;;;;;;;15.90;92.40;;;;;;5095655;28;19958;-39
2022/11/16 02:55:36;;;;;;;;;;;15.80;92.40;;;;;;5095872;28;19909;-38
2022/11/16 02:58:04;;;;;;;;;;;15.90;92.40;;;;;;5095038;28;19912;-39
2022/11/16 03:00:36;;;;;;;;;;;15.80;92.40;;;;;;5095182;28;19968;-38
2022/11/16 03:03:20;;;;;;;;;;;15.80;92.50;;;;;;5095187;28;19912;-40
2022/11/16 03:05:48;;;;;;;;;;;15.80;92.50;;;;;;5095250;28;20272;-38
2022/11/16 03:08:29;;;;;;;;;;;15.80;92.50;;;;;;5095092;28;19920;-38
2022/11/16 03:13:40;;;;;;;;;;;15.80;92.50;;;;;;5091386;28;19919;-38
2022/11/16 03:16:08;;;;;;;;;;;15.80;92.50;;;;;;5094820;28;19908;-39
2022/11/16 03:18:34;;;;;;;;;;;15.80;92.50;;;;;;5094711;28;19919;-39
2022/11/16 03:21:10;;;;;;;;;;;15.80;92.50;;;;;;5095013;28;19912;-38
2022/11/16 03:23:36;;;;;;;;;;;15.80;92.60;;;;;;5094836;28;19908;-38
2022/11/16 03:26:04;;;;;;;;;;;15.70;92.50;;;;;;5105021;28;20365;-39
2022/11/16 03:28:35;;;;;;;;;;;15.70;92.60;;;;;;5115236;28;19912;-38
2022/11/16 03:31:04;;;;;;;;;;;15.70;92.60;;;;;;5088051;28;19999;-39
2022/11/16 03:33:35;;;;;;;;;;;15.70;92.60;;;;;;5079241;28;20372;-39
2022/11/16 03:36:08;;;;;;;;;;;15.70;92.70;;;;;;5095107;28;19908;-39
2022/11/16 03:38:34;;;;;;;;;;;15.70;92.70;;;;;;5094533;28;19912;-39
2022/11/16 03:41:01;;;;;;;;;;;15.70;92.70;;;;;;5094335;28;19951;-38
2022/11/16 03:43:26;;;;;;;;;;;15.70;92.60;;;;;;5094369;28;19943;-38
2022/11/16 03:45:52;;;;;;;;;;;15.70;92.70;;;;;;5099050;28;20393;-39
2022/11/16 03:48:18;;;;;;;;;;;15.70;92.70;;;;;;5114523;28;19912;-39
2022/11/16 03:50:43;;;;;;;;;;;15.70;92.60;;;;;;5112516;28;19934;-39
2022/11/16 03:53:09;;;;;;;;;;;15.70;92.70;;;;;;5112463;28;20271;-41
2022/11/16 03:55:34;;;;;;;;;;;15.70;92.70;;;;;;5112448;28;19942;-41
2022/11/16 03:58:00;;;;;;;;;;;15.70;92.70;;;;;;5112444;28;20390;-42
2022/11/16 04:00:25;;;;;;;;;;;15.60;92.70;;;;;;5112374;28;19961;-40
2022/11/16 04:02:51;;;;;;;;;;;15.60;92.70;;;;;;5112748;28;19914;-40
2022/11/16 04:24:39;;;;;;;;;;;15.50;93.00;;;;;;5114331;28;19936;-39
2022/11/16 04:29:52;;;;;;;;;;;15.50;93.00;;;;;;5114561;28;19965;-38
2022/11/16 04:37:51;;;;;;;;;;;15.40;93.00;;;;;;5114117;28;19958;-39
2022/11/16 04:40:17;;;;;;;;;;;15.40;93.00;;;;;;5113981;28;19951;-38
2022/11/16 04:42:49;;;;;;;;;;;15.40;93.10;;;;;;5095877;28;19966;-39
2022/11/16 04:47:58;;;;;;;;;;;15.40;93.10;;;;;;5118247;28;19915;-38
2022/11/16 04:50:24;;;;;;;;;;;15.40;93.10;;;;;;5118292;28;20265;-38
2022/11/16 04:52:50;;;;;;;;;;;15.40;93.10;;;;;;5118310;28;19939;-38
2022/11/16 04:55:15;;;;;;;;;;;15.30;93.20;;;;;;5118255;28;19915;-38
2022/11/16 04:57:41;;;;;;;;;;;15.40;93.10;;;;;;5118540;28;19918;-38
2022/11/16 05:00:07;;;;;;;;;;;15.40;93.10;;;;;;5117802;28;20372;-38
2022/11/16 05:02:32;;;;;;;;;;;15.30;93.20;;;;;;5118428;28;19916;-38
2022/11/16 05:04:57;;;;;;;;;;;15.30;93.20;;;;;;5117971;28;19912;-38
2022/11/16 05:07:23;;;;;;;;;;;15.30;93.30;;;;;;5117544;28;19930;-39
2022/11/16 05:09:48;;;;;;;;;;;15.30;93.20;;;;;;5117924;28;19908;-38
2022/11/16 05:12:14;;;;;;;;;;;15.30;93.20;;;;;;5117487;28;19983;-39
2022/11/16 05:14:40;;;;;;;;;;;15.30;93.20;;;;;;5117383;28;19907;-38
2022/11/16 05:17:05;;;;;;;;;;;15.30;93.10;;;;;;5117867;28;19954;-39
2022/11/16 05:22:15;;;;;;;;;;;15.30;93.10;;;;;;5117760;28;19957;-38
2022/11/16 05:24:40;;;;;;;;;;;15.30;93.40;;;;;;5117210;28;19907;-38
2022/11/16 05:27:07;;;;;;;;;;;15.30;93.20;;;;;;5117597;28;19908;-39
2022/11/16 05:29:33;;;;;;;;;;;15.30;93.20;;;;;;5117173;28;19908;-38
2022/11/16 05:31:59;;;;;;;;;;;15.30;93.20;;;;;;5117531;28;20019;-39
2022/11/16 05:34:25;;;;;;;;;;;15.30;93.20;;;;;;5117415;28;20031;-39
2022/11/16 05:36:51;;;;;;;;;;;15.30;93.20;;;;;;5116964;28;19907;-39
2022/11/16 05:39:16;;;;;;;;;;;15.30;93.20;;;;;;5116887;28;19911;-39
2022/11/16 05:41:42;;;;;;;;;;;15.30;93.20;;;;;;5117398;28;19922;-39
2022/11/16 05:44:07;;;;;;;;;;;15.30;93.20;;;;;;5098874;28;19917;-39
2022/11/16 05:46:33;;;;;;;;;;;15.20;93.20;;;;;;5116823;28;19908;-39
2022/11/16 05:48:58;;;;;;;;;;;15.20;93.20;;;;;;5117126;28;19941;-39
2022/11/16 05:51:24;;;;;;;;;;;15.30;93.20;;;;;;5117189;28;20255;-39
2022/11/16 05:53:49;;;;;;;;;;;15.30;93.20;;;;;;5117029;28;19915;-39
2022/11/16 05:56:15;;;;;;;;;;;15.20;93.20;;;;;;5115767;28;20274;-39
2022/11/16 05:58:41;;;;;;;;;;;15.30;93.20;;;;;;5116894;28;20324;-39
2022/11/16 06:01:06;;;;;;;;;;;15.30;93.20;;;;;;5116986;28;20409;-40
2022/11/16 06:03:34;;;;;;;;;;;15.20;93.20;;;;;;5116708;28;19920;-39
2022/11/16 06:05:59;;;;;;;;;;;15.20;93.30;;;;;;5116884;28;19908;-39
2022/11/16 06:08:25;;;;;;;;;;;15.20;93.20;;;;;;5116918;28;19926;-39
2022/11/16 06:10:51;;;;;;;;;;;15.20;93.30;;;;;;5098535;28;19914;-39
2022/11/16 06:13:16;;;;;;;;;;;15.20;93.30;;;;;;5116672;28;19908;-40
2022/11/16 06:15:41;;;;;;;;;;;15.20;93.30;;;;;;5116288;28;20388;-39
2022/11/16 06:18:07;;;;;;;;;;;15.20;93.30;;;;;;5116536;28;20014;-40
2022/11/16 06:20:33;;;;;;;;;;;15.20;93.30;;;;;;5116301;28;19916;-40
2022/11/16 06:22:58;;;;;;;;;;;15.20;93.30;;;;;;5116457;28;20381;-39
2022/11/16 06:25:24;;;;;;;;;;;15.20;93.40;;;;;;5116314;28;20323;-39
2022/11/16 06:27:49;;;;;;;;;;;15.20;93.30;;;;;;5115820;28;19907;-39
2022/11/16 06:30:14;;;;;;;;;;;15.20;93.20;;;;;;5115936;28;19954;-39
2022/11/16 06:32:40;;;;;;;;;;;15.20;93.20;;;;;;5116255;28;19908;-40
2022/11/16 06:35:06;;;;;;;;;;;15.20;93.30;;;;;;5116104;28;19960;-39
2022/11/16 06:37:31;;;;;;;;;;;15.20;93.20;;;;;;5115725;28;19915;-39
2022/11/16 06:39:57;;;;;;;;;;;15.20;93.30;;;;;;5116084;28;19923;-37
2022/11/16 06:42:22;;;;;;;;;;;15.20;93.30;;;;;;5115977;28;19915;-39
2022/11/16 06:44:47;;;;;;;;;;;15.20;93.20;;;;;;5115925;28;19915;-39
2022/11/16 06:47:13;;;;;;;;;;;15.20;93.30;;;;;;5115502;28;20385;-39
2022/11/16 06:49:39;;;;;;;;;;;15.20;93.30;;;;;;5115387;28;19908;-40
2022/11/16 06:52:04;;;;;;;;;;;15.10;93.30;;;;;;5099673;28;19957;-40
2022/11/16 06:54:30;;;;;;;;;;;15.20;93.60;;;;;;5094762;28;19931;-41
2022/11/16 06:56:55;;;;;;;;;;;15.10;93.30;;;;;;5076261;28;19947;-39
2022/11/16 06:59:21;;;;;;;;;;;15.20;93.30;;;;;;5094234;28;19922;-40
2022/11/16 07:01:46;;;;;;;;;;;15.20;93.30;;;;;;5095488;28;20278;-40
2022/11/16 07:04:11;;;;;;;;;;;15.20;93.20;;;;;;5094832;28;19995;-40
2022/11/16 07:06:37;;;;;;;;;;;15.20;93.30;;;;;;5094020;28;20347;-42
2022/11/16 07:09:06;;;;;;;;;;;15.20;93.20;;;;;;5082262;28;20019;-40
2022/11/16 07:11:35;;;;;;;;;;;15.20;93.20;;;;;;5085638;28;19916;-45
2022/11/16 07:14:01;;;;;;;;;;;15.20;93.30;;;;;;5108319;28;19935;-45
2022/11/16 07:16:26;;;;;;;;;;;15.20;93.30;;;;;;5108971;28;20351;-47
2022/11/16 07:18:55;;;;;;;;;;;15.20;93.20;;;;;;5101253;28;20312;-46
2022/11/16 07:21:20;;;;;;;;;;;15.20;93.20;;;;;;5102072;28;20267;-44
2022/11/16 07:23:46;;;;;;;;;;;15.20;93.20;;;;;;5102929;28;19919;-45
2022/11/16 07:26:11;;;;;;;;;;;15.20;93.30;;;;;;5108729;28;19960;-40
2022/11/16 07:28:37;;;;;;;;;;;15.20;93.30;;;;;;5094044;28;19912;-41
2022/11/16 07:31:03;;;;;;;;;;;15.20;93.40;;;;;;5100943;28;19911;-40
2022/11/16 07:48:46;;;;;;;;;;;15.30;93.60;;;;;;5099845;28;19912;-40
2022/11/16 07:51:13;;;;;;;;;;;15.40;93.60;;;;;;5090945;28;19922;-47
2022/11/16 07:53:38;;;;;;;;;;;15.40;93.60;;;;;;5101780;28;19919;-41
2022/11/16 07:56:04;;;;;;;;;;;15.50;93.60;;;;;;5111002;28;19912;-40
2022/11/16 07:58:33;;;;;;;;;;;15.50;93.60;;;;;;5100576;28;19912;-41
2022/11/16 08:01:06;;;;;;;;;;;15.60;93.60;;;;;;5107297;28;19952;-40
2022/11/16 08:03:32;;;;;;;;;;;15.70;93.60;;;;;;5111173;28;19915;-41
2022/11/16 08:06:02;;;;;;;;;;;15.80;93.50;;;;;;5096152;28;19907;-41
2022/11/16 08:08:27;;;;;;;;;;;16.00;93.40;;;;;;5107870;28;19955;-40
2022/11/16 08:10:59;;;;;;;;;;;16.20;93.20;;;;;;5114382;28;19915;-40
2022/11/16 08:13:25;;;;;;;;;;;16.40;93.00;;;;;;5109765;28;20053;-41
2022/11/16 08:15:50;;;;;;;;;;;16.60;92.60;;;;;;5104144;28;19953;-40
2022/11/16 08:18:16;;;;;;;;;;;16.80;92.40;;;;;;5101514;28;19915;-41
2022/11/16 08:20:41;;;;;;;;;;;17.00;92.10;;;;;;5107679;28;20369;-41
2022/11/16 08:23:07;;;;;;;;;;;17.20;91.90;;;;;;5109936;28;19912;-41
2022/11/16 08:25:32;;;;;;;;;;;17.40;91.60;;;;;;5107383;28;19912;-40
2022/11/16 08:27:58;;;;;;;;;;;17.50;91.40;;;;;;5110622;28;20324;-40
2022/11/16 08:30:23;;;;;;;;;;;17.60;91.20;;;;;;5109808;28;20394;-40
2022/11/16 08:32:49;;;;;;;;;;;17.80;91.00;;;;;;5107410;28;19934;-39
2022/11/16 08:35:14;;;;;;;;;;;17.90;90.80;;;;;;5099388;28;20007;-41
2022/11/16 08:37:40;;;;;;;;;;;18.00;90.70;;;;;;5109558;28;19908;-40
2022/11/16 08:40:05;;;;;;;;;;;18.10;90.60;;;;;;5091453;28;19915;-39
2022/11/16 08:42:31;;;;;;;;;;;18.10;90.40;;;;;;5095977;28;19916;-39
2022/11/16 08:44:56;;;;;;;;;;;18.20;90.40;;;;;;5111103;28;19916;-41
2022/11/16 08:47:22;;;;;;;;;;;18.30;90.40;;;;;;5108881;28;19976;-40
2022/11/16 08:49:47;;;;;;;;;;;18.30;90.20;;;;;;5104468;28;19912;-41
2022/11/16 08:52:13;;;;;;;;;;;18.30;90.20;;;;;;5113701;28;20426;-40
2022/11/16 08:54:40;;;;;;;;;;;18.30;90.10;;;;;;5105638;28;19923;-40
2022/11/16 08:57:05;;;;;;;;;;;18.40;90.10;;;;;;5093124;28;19999;-41
2022/11/16 08:59:31;;;;;;;;;;;18.40;90.10;;;;;;5096476;28;20064;-41
2022/11/16 09:01:56;;;;;;;;;;;18.50;90.00;;;;;;5108211;28;19923;-40
2022/11/16 09:04:23;;;;;;;;;;;18.50;90.00;;;;;;5102463;28;19923;-48
2022/11/16 09:06:48;;;;;;;;;;;18.60;89.70;;;;;;5096753;28;19912;-41
2022/11/16 09:09:14;;;;;;;;;;;18.70;89.50;;;;;;5093234;28;19942;-40
2022/11/16 09:11:39;;;;;;;;;;;18.80;89.30;;;;;;5093181;28;19908;-43
2022/11/16 09:14:05;;;;;;;;;;;18.90;89.00;;;;;;5093334;28;20304;-41
2022/11/16 09:16:30;;;;;;;;;;;19.00;88.60;;;;;;5093182;28;19908;-41
2022/11/16 09:18:56;;;;;;;;;;;19.20;88.40;;;;;;5093360;28;20007;-41
2022/11/16 09:21:22;;;;;;;;;;;19.30;88.10;;;;;;5092900;28;20093;-40
2022/11/16 09:23:48;;;;;;;;;;;19.40;87.90;;;;;;5075307;28;19951;-41
2022/11/16 09:26:14;;;;;;;;;;;19.40;87.80;;;;;;5075230;28;20318;-41
2022/11/16 09:28:39;;;;;;;;;;;19.40;87.70;;;;;;5075287;28;19908;-42
2022/11/16 09:31:05;;;;;;;;;;;19.40;87.70;;;;;;5095126;28;20350;-41
2022/11/16 09:33:31;;;;;;;;;;;19.40;87.90;;;;;;5097087;28;19909;-41
2022/11/16 09:36:05;;;;;;;;;;;19.30;88.00;;;;;;5097221;28;20255;-46
2022/11/16 09:38:32;;;;;;;;;;;19.20;88.40;;;;;;5076552;28;19909;-41
2022/11/16 09:40:57;;;;;;;;;;;19.00;88.70;;;;;;5076711;28;19935;-40
2022/11/16 09:43:40;;;;;;;;;;;18.90;89.00;;;;;;5058798;28;20348;-41
2022/11/16 09:46:11;;;;;;;;;;;18.80;89.40;;;;;;5076577;28;19908;-41
2022/11/16 09:48:37;;;;;;;;;;;18.70;89.80;;;;;;5076461;28;19908;-41
2022/11/16 09:51:07;;;;;;;;;;;18.70;90.00;;;;;;5076462;28;20323;-40
2022/11/16 09:53:32;;;;;;;;;;;18.70;90.10;;;;;;5063461;28;19948;-41
2022/11/16 09:56:01;;;;;;;;;;;18.60;90.10;;;;;;5096183;28;19996;-41
2022/11/16 09:58:50;;;;;;;;;;;18.70;90.10;;;;;;5096558;28;19908;-41
2022/11/16 10:01:21;;;;;;;;;;;18.80;90.10;;;;;;5088035;28;19912;-41
2022/11/16 10:03:49;;;;;;;;;;;18.80;90.10;;;;;;5096155;28;19942;-41
2022/11/16 10:06:20;;;;;;;;;;;18.80;90.10;;;;;;5096121;28;19950;-41
2022/11/16 10:08:47;;;;;;;;;;;18.80;90.10;;;;;;5078124;28;20316;-42
2022/11/16 10:11:16;;;;;;;;;;;18.80;90.10;;;;;;5096528;28;20294;-40
2022/11/16 10:13:47;;;;;;;;;;;18.80;90.10;;;;;;5096145;28;19909;-42
2022/11/16 10:16:20;;;;;;;;;;;18.80;90.20;;;;;;5096385;28;19912;-41
2022/11/16 10:18:59;;;;;;;;;;;18.80;90.20;;;;;;5095835;28;19935;-41
2022/11/16 10:21:27;;;;;;;;;;;18.70;90.20;;;;;;5096467;28;20010;-42
2022/11/16 10:23:56;;;;;;;;;;;18.80;90.20;;;;;;5096021;28;19909;-41
2022/11/16 10:26:24;;;;;;;;;;;18.90;90.20;;;;;;5095616;28;19914;-41
2022/11/16 10:28:55;;;;;;;;;;;18.90;90.30;;;;;;5095391;28;19915;-41
2022/11/16 10:31:27;;;;;;;;;;;18.90;90.10;;;;;;5096198;28;20363;-41
2022/11/16 10:33:54;;;;;;;;;;;19.00;90.00;;;;;;5095953;28;20313;-41
2022/11/16 10:36:25;;;;;;;;;;;19.00;90.00;;;;;;5100335;28;20003;-41
2022/11/16 10:38:52;;;;;;;;;;;19.10;89.90;;;;;;5116098;28;19912;-41
2022/11/16 10:41:18;;;;;;;;;;;19.20;89.70;;;;;;5115476;28;20383;-42
2022/11/16 10:43:44;;;;;;;;;;;19.20;89.60;;;;;;5115903;28;19914;-43
2022/11/16 10:46:28;;;;;;;;;;;19.30;89.50;;;;;;5096139;28;20382;-42
2022/11/16 10:49:10;;;;;;;;;;;19.30;89.60;;;;;;5094994;28;19943;-41
2022/11/16 10:51:36;;;;;;;;;;;19.20;89.60;;;;;;5102801;28;19943;-42
2022/11/16 10:54:03;;;;;;;;;;;19.20;89.80;;;;;;5083530;28;19908;-40
2022/11/16 10:56:36;;;;;;;;;;;19.10;90.00;;;;;;5095330;28;20011;-41
2022/11/16 10:59:08;;;;;;;;;;;19.10;90.10;;;;;;5104195;28;19920;-41
2022/11/16 11:01:37;;;;;;;;;;;19.00;90.10;;;;;;5111074;28;19915;-41
2022/11/16 11:04:11;;;;;;;;;;;19.00;90.20;;;;;;5111172;28;19923;-41
2022/11/16 11:06:37;;;;;;;;;;;19.00;90.20;;;;;;5115205;28;20342;-41
2022/11/16 11:09:21;;;;;;;;;;;19.00;90.20;;;;;;5107820;28;19995;-41
2022/11/16 11:14:40;;;;;;;;;;;19.10;90.10;;;;;;5107142;28;20418;-42
2022/11/16 11:17:12;;;;;;;;;;;19.40;90.00;;;;;;5115169;28;19947;-41
2022/11/16 11:19:38;;;;;;;;;;;19.80;89.40;;;;;;5108900;28;19922;-41
2022/11/16 11:22:03;;;;;;;;;;;20.20;88.40;;;;;;5098335;28;19916;-41
2022/11/16 11:24:29;;;;;;;;;;;20.50;87.20;;;;;;5114779;28;19907;-41
2022/11/16 11:26:56;;;;;;;;;;;20.60;86.60;;;;;;5109618;28;19924;-41
2022/11/16 11:29:33;;;;;;;;;;;20.60;86.50;;;;;;5109310;28;19954;-40
2022/11/16 11:31:59;;;;;;;;;;;20.60;86.60;;;;;;5100900;28;19912;-41
2022/11/16 11:34:29;;;;;;;;;;;20.40;86.80;;;;;;5094622;28;20342;-43
2022/11/16 11:36:56;;;;;;;;;;;20.20;87.20;;;;;;5088015;28;19916;-42
2022/11/16 11:39:22;;;;;;;;;;;20.10;87.60;;;;;;5108601;28;19976;-44
2022/11/16 11:42:01;;;;;;;;;;;19.90;88.10;;;;;;5115310;28;19912;-43
2022/11/16 11:44:31;;;;;;;;;;;19.60;88.50;;;;;;5089114;28;19912;-41
2022/11/16 11:47:04;;;;;;;;;;;19.50;89.10;;;;;;5103805;28;19931;-41
2022/11/16 11:49:31;;;;;;;;;;;19.50;89.40;;;;;;5106592;28;19912;-40
2022/11/16 11:52:20;;;;;;;;;;;19.30;89.90;;;;;;5105587;28;19922;-41
2022/11/16 11:54:46;;;;;;;;;;;19.10;90.10;;;;;;5114215;28;20020;-40
2022/11/16 11:57:19;;;;;;;;;;;19.10;90.30;;;;;;5112626;28;20026;-40
2022/11/16 11:59:45;;;;;;;;;;;19.00;89.30;;;;;;5114829;28;19919;-41
2022/11/16 12:02:26;;;;;;;;;;;19.10;88.40;;;;;;5096515;28;19916;-41
2022/11/16 12:04:59;;;;;;;;;;;19.40;89.10;;;;;;5089064;28;19995;-41
2022/11/16 12:07:36;;;;;;;;;;;19.90;88.50;;;;;;5099404;28;19919;-43
2022/11/16 12:10:16;;;;;;;;;;;20.20;87.60;;;;;;5080839;28;19912;-41
2022/11/16 12:12:44;;;;;;;;;;;20.50;86.80;;;;;;5094355;28;19912;-38
2022/11/16 12:15:25;;;;;;;;;;;20.50;86.50;;;;;;5104283;28;20002;-38
2022/11/16 12:17:53;;;;;;;;;;;20.40;86.50;;;;;;5096090;28;20373;-39
2022/11/16 12:20:19;;;;;;;;;;;20.30;86.70;;;;;;5080111;28;19987;-39
2022/11/16 12:22:47;;;;;;;;;;;20.10;87.00;;;;;;5092772;28;20355;-40
2022/11/16 12:25:15;;;;;;;;;;;20.00;87.40;;;;;;5092405;28;20395;-39
2022/11/16 12:27:49;;;;;;;;;;;19.90;87.80;;;;;;5102033;28;20020;-39
2022/11/16 12:30:19;;;;;;;;;;;19.70;88.20;;;;;;5082525;28;19927;-41
2022/11/16 12:32:45;;;;;;;;;;;19.60;88.50;;;;;;5085724;28;19914;-42
2022/11/16 12:35:35;;;;;;;;;;;19.50;89.00;;;;;;5113891;28;19912;-41
2022/11/16 12:38:08;;;;;;;;;;;19.40;89.10;;;;;;5094905;28;19937;-40
2022/11/16 12:40:52;;;;;;;;;;;19.50;89.10;;;;;;5075643;28;20003;-40
2022/11/16 12:43:26;;;;;;;;;;;19.70;88.90;;;;;;5093532;28;19912;-41
2022/11/16 12:46:10;;;;;;;;;;;20.10;88.30;;;;;;5093814;28;19909;-42
2022/11/16 12:48:54;;;;;;;;;;;20.30;87.30;;;;;;5093584;28;19916;-42
2022/11/16 12:51:38;;;;;;;;;;;20.60;86.80;;;;;;5093491;28;19995;-41
2022/11/16 12:54:22;;;;;;;;;;;20.60;86.50;;;;;;5093501;28;19914;-41
2022/11/16 12:57:11;;;;;;;;;;;20.60;86.50;;;;;;5093546;28;19955;-41
2022/11/16 12:59:54;;;;;;;;;;;20.40;86.70;;;;;;5093066;28;19919;-41
2022/11/16 13:02:29;;;;;;;;;;;20.20;87.20;;;;;;5093268;28;20271;-41
2022/11/16 13:05:02;;;;;;;;;;;20.10;87.50;;;;;;5095438;28;19912;-41
2022/11/16 13:07:36;;;;;;;;;;;20.00;88.00;;;;;;5097029;28;19915;-42
2022/11/16 13:10:05;;;;;;;;;;;19.80;88.50;;;;;;5097474;28;19908;-41
2022/11/16 13:12:32;;;;;;;;;;;19.70;88.80;;;;;;5097403;28;19908;-40
2022/11/16 13:14:58;;;;;;;;;;;19.60;89.20;;;;;;5096971;28;20393;-41
2022/11/16 13:17:26;;;;;;;;;;;19.50;90.00;;;;;;5078914;28;19919;-40
2022/11/16 13:20:00;;;;;;;;;;;19.50;89.70;;;;;;5096812;28;20007;-40
2022/11/16 13:22:27;;;;;;;;;;;19.50;89.70;;;;;;5115081;28;19950;-40
2022/11/16 13:25:02;;;;;;;;;;;19.80;89.50;;;;;;5114872;28;19912;-46
2022/11/16 13:27:46;;;;;;;;;;;20.00;89.00;;;;;;5108095;28;19933;-49
2022/11/16 13:30:23;;;;;;;;;;;20.50;88.10;;;;;;5095635;28;19918;-43
2022/11/16 13:33:04;;;;;;;;;;;20.70;86.90;;;;;;5101683;28;19907;-41
2022/11/16 13:35:29;;;;;;;;;;;20.80;86.90;;;;;;5111930;28;21777;-43
2022/11/16 13:37:55;;;;;;;;;;;20.70;86.80;;;;;;5097752;28;19908;-41
2022/11/16 13:40:22;;;;;;;;;;;20.60;87.10;;;;;;5111459;28;20342;-41
2022/11/16 13:43:21;;;;;;;;;;;20.40;87.40;;;;;;5113759;28;20053;-42
2022/11/16 13:45:52;;;;;;;;;;;20.40;87.70;;;;;;5059403;28;19907;-42
2022/11/16 13:48:19;;;;;;;;;;;20.20;88.20;;;;;;5102641;28;19908;-42
2022/11/16 13:50:46;;;;;;;;;;;20.00;88.50;;;;;;5096604;28;19911;-42
2022/11/16 13:53:20;;;;;;;;;;;19.80;88.90;;;;;;5100812;28;19951;-43
2022/11/16 13:55:52;;;;;;;;;;;19.70;89.40;;;;;;5107762;28;19908;-41
2022/11/16 13:58:19;;;;;;;;;;;19.60;89.80;;;;;;5096493;28;19912;-42
2022/11/16 14:00:54;;;;;;;;;;;19.50;90.00;;;;;;5104868;28;19912;-41
2022/11/16 14:03:19;;;;;;;;;;;19.60;90.00;;;;;;5094698;28;20335;-42
2022/11/16 14:05:45;;;;;;;;;;;19.70;90.00;;;;;;5099856;28;20017;-41
2022/11/16 14:08:23;;;;;;;;;;;19.90;89.60;;;;;;5099623;28;19963;-40
2022/11/16 14:10:48;;;;;;;;;;;20.30;88.80;;;;;;5102692;28;19915;-41
2022/11/16 14:13:47;;;;;;;;;;;20.60;88.00;;;;;;5112381;28;20044;-41
2022/11/16 14:16:16;;;;;;;;;;;20.70;87.50;;;;;;5096553;28;20364;-41
2022/11/16 14:18:41;;;;;;;;;;;20.60;87.50;;;;;;5096093;28;19904;-42
2022/11/16 14:21:16;;;;;;;;;;;20.50;87.70;;;;;;5095935;28;19908;-41
2022/11/16 14:23:53;;;;;;;;;;;20.40;87.70;;;;;;5097362;28;19908;-41
2022/11/16 14:26:25;;;;;;;;;;;20.30;88.00;;;;;;5100725;28;20303;-41
2022/11/16 14:28:56;;;;;;;;;;;20.20;88.30;;;;;;5091054;28;19915;-41
2022/11/16 14:31:27;;;;;;;;;;;20.10;88.60;;;;;;5095589;28;20236;-41
2022/11/16 14:33:55;;;;;;;;;;;20.00;88.90;;;;;;5096203;28;19912;-41
2022/11/16 14:36:52;;;;;;;;;;;19.90;89.30;;;;;;5109974;28;19914;-41
2022/11/16 14:39:24;;;;;;;;;;;19.80;90.10;;;;;;5064999;28;19912;-42
2022/11/16 14:41:50;;;;;;;;;;;19.70;90.00;;;;;;5095845;28;19946;-43
2022/11/16 14:44:24;;;;;;;;;;;19.60;90.10;;;;;;5095282;28;19911;-42
2022/11/16 14:46:50;;;;;;;;;;;19.60;90.10;;;;;;5096362;28;19908;-42
2022/11/16 14:49:16;;;;;;;;;;;19.70;90.10;;;;;;5099758;28;19961;-43
2022/11/16 14:51:48;;;;;;;;;;;20.00;89.80;;;;;;5099797;28;19915;-42
2022/11/16 14:54:32;;;;;;;;;;;20.30;89.10;;;;;;5115846;28;19908;-46
2022/11/16 14:57:03;;;;;;;;;;;20.60;88.20;;;;;;5098952;28;19908;-41
2022/11/16 14:59:29;;;;;;;;;;;20.70;87.60;;;;;;5107298;28;19920;-42
2022/11/16 15:01:55;;;;;;;;;;;20.70;87.40;;;;;;5095568;28;19915;-42
2022/11/16 15:04:22;;;;;;;;;;;20.60;87.50;;;;;;5107756;28;19994;-41
2022/11/16 15:06:53;;;;;;;;;;;20.60;87.70;;;;;;5115332;28;19910;-41
2022/11/16 15:09:26;;;;;;;;;;;20.50;87.90;;;;;;5115717;28;19922;-42
2022/11/16 15:14:39;;;;;;;;;;;20.30;88.60;;;;;;5115384;28;20065;-43
2022/11/16 15:17:05;;;;;;;;;;;20.10;88.90;;;;;;5112300;28;20346;-42
2022/11/16 15:19:31;;;;;;;;;;;19.90;89.40;;;;;;5115422;28;19908;-42
2022/11/16 15:21:57;;;;;;;;;;;19.80;89.80;;;;;;5115324;28;19907;-42